sensor_id;sensor_type;location;lat;lon;timestamp;P1;durP1;ratioP1;P2;durP2;ratioP2
37477;SDS011;23334;54.316;10.182;2022-08-30T00:01:32;1.10;;;0.93;;
37477;SDS011;23334;54.316;10.182;2022-08-30T00:03:59;1.30;;;1.20;;
37477;SDS011;23334;54.316;10.182;2022-08-30T00:06:25;1.40;;;1.30;;
37477;SDS011;23334;54.316;10.182;2022-08-30T00:08:53;2.60;;;0.90;;
37477;SDS011;23334;54.316;10.182;2022-08-30T00:11:21;2.27;;;1.27;;
37477;SDS011;23334;54.316;10.182;2022-08-30T00:13:49;3.20;;;1.20;;
37477;SDS011;23334;54.316;10.182;2022-08-30T00:16:17;2.90;;;1.10;;
37477;SDS011;23334;54.316;10.182;2022-08-30T00:18:45;1.23;;;1.13;;
37477;SDS011;23334;54.316;10.182;2022-08-30T00:21:12;0.93;;;0.83;;
37477;SDS011;23334;54.316;10.182;2022-08-30T00:23:38;2.13;;;1.20;;
37477;SDS011;23334;54.316;10.182;2022-08-30T00:26:04;1.43;;;0.97;;
37477;SDS011;23334;54.316;10.182;2022-08-30T00:28:31;1.83;;;1.20;;
37477;SDS011;23334;54.316;10.182;2022-08-30T00:30:58;1.50;;;0.90;;
37477;SDS011;23334;54.316;10.182;2022-08-30T00:33:25;1.43;;;1.33;;
37477;SDS011;23334;54.316;10.182;2022-08-30T00:35:52;1.53;;;1.40;;
37477;SDS011;23334;54.316;10.182;2022-08-30T00:38:19;1.20;;;1.10;;
37477;SDS011;23334;54.316;10.182;2022-08-30T00:40:45;2.10;;;1.20;;
37477;SDS011;23334;54.316;10.182;2022-08-30T00:43:14;1.40;;;1.30;;
37477;SDS011;23334;54.316;10.182;2022-08-30T00:45:43;1.20;;;1.10;;
37477;SDS011;23334;54.316;10.182;2022-08-30T00:48:09;2.20;;;1.40;;
37477;SDS011;23334;54.316;10.182;2022-08-30T00:50:39;1.17;;;1.07;;
37477;SDS011;23334;54.316;10.182;2022-08-30T00:53:09;2.23;;;1.03;;
37477;SDS011;23334;54.316;10.182;2022-08-30T00:55:39;2.43;;;1.37;;
37477;SDS011;23334;54.316;10.182;2022-08-30T00:58:06;2.00;;;1.30;;
37477;SDS011;23334;54.316;10.182;2022-08-30T01:00:34;1.60;;;1.23;;
37477;SDS011;23334;54.316;10.182;2022-08-30T01:03:00;2.30;;;1.10;;
37477;SDS011;23334;54.316;10.182;2022-08-30T01:05:25;1.10;;;0.93;;
37477;SDS011;23334;54.316;10.182;2022-08-30T01:07:53;1.00;;;0.90;;
37477;SDS011;23334;54.316;10.182;2022-08-30T01:10:20;1.80;;;1.23;;
37477;SDS011;23334;54.316;10.182;2022-08-30T01:12:47;1.33;;;1.20;;
37477;SDS011;23334;54.316;10.182;2022-08-30T01:15:12;1.37;;;0.97;;
37477;SDS011;23334;54.316;10.182;2022-08-30T01:17:40;1.57;;;1.00;;
37477;SDS011;23334;54.316;10.182;2022-08-30T01:20:08;1.20;;;1.10;;
37477;SDS011;23334;54.316;10.182;2022-08-30T01:22:41;4.23;;;1.40;;
37477;SDS011;23334;54.316;10.182;2022-08-30T01:25:15;1.10;;;1.00;;
37477;SDS011;23334;54.316;10.182;2022-08-30T01:27:54;1.40;;;1.00;;
37477;SDS011;23334;54.316;10.182;2022-08-30T01:30:25;1.00;;;0.90;;
37477;SDS011;23334;54.316;10.182;2022-08-30T01:32:54;2.30;;;1.00;;
37477;SDS011;23334;54.316;10.182;2022-08-30T01:35:26;2.13;;;1.30;;
37477;SDS011;23334;54.316;10.182;2022-08-30T01:37:52;3.93;;;1.00;;
37477;SDS011;23334;54.316;10.182;2022-08-30T01:40:18;1.17;;;0.80;;
37477;SDS011;23334;54.316;10.182;2022-08-30T01:42:43;1.87;;;1.10;;
37477;SDS011;23334;54.316;10.182;2022-08-30T01:45:09;1.23;;;1.13;;
37477;SDS011;23334;54.316;10.182;2022-08-30T01:47:35;1.33;;;0.93;;
37477;SDS011;23334;54.316;10.182;2022-08-30T01:50:01;1.30;;;1.20;;
37477;SDS011;23334;54.316;10.182;2022-08-30T01:52:28;1.33;;;1.23;;
37477;SDS011;23334;54.316;10.182;2022-08-30T01:54:54;1.10;;;1.00;;
37477;SDS011;23334;54.316;10.182;2022-08-30T01:57:21;1.97;;;1.10;;
37477;SDS011;23334;54.316;10.182;2022-08-30T01:59:48;1.10;;;0.93;;
37477;SDS011;23334;54.316;10.182;2022-08-30T02:02:15;2.03;;;0.93;;
37477;SDS011;23334;54.316;10.182;2022-08-30T02:04:43;1.70;;;1.30;;
37477;SDS011;23334;54.316;10.182;2022-08-30T02:07:09;1.70;;;1.40;;
37477;SDS011;23334;54.316;10.182;2022-08-30T02:09:35;1.10;;;0.97;;
37477;SDS011;23334;54.316;10.182;2022-08-30T02:12:02;1.83;;;1.13;;
37477;SDS011;23334;54.316;10.182;2022-08-30T02:14:31;1.50;;;1.10;;
37477;SDS011;23334;54.316;10.182;2022-08-30T02:16:57;1.10;;;0.83;;
37477;SDS011;23334;54.316;10.182;2022-08-30T02:19:23;1.40;;;1.20;;
37477;SDS011;23334;54.316;10.182;2022-08-30T02:21:48;1.20;;;0.93;;
37477;SDS011;23334;54.316;10.182;2022-08-30T02:24:14;2.77;;;1.23;;
37477;SDS011;23334;54.316;10.182;2022-08-30T02:26:41;4.07;;;1.17;;
37477;SDS011;23334;54.316;10.182;2022-08-30T02:29:06;6.43;;;1.17;;
37477;SDS011;23334;54.316;10.182;2022-08-30T02:31:32;1.17;;;1.07;;
37477;SDS011;23334;54.316;10.182;2022-08-30T02:33:57;1.90;;;1.40;;
37477;SDS011;23334;54.316;10.182;2022-08-30T02:36:23;1.07;;;0.97;;
37477;SDS011;23334;54.316;10.182;2022-08-30T02:38:49;1.27;;;1.17;;
37477;SDS011;23334;54.316;10.182;2022-08-30T02:41:18;1.30;;;1.20;;
37477;SDS011;23334;54.316;10.182;2022-08-30T02:43:44;1.70;;;1.10;;
37477;SDS011;23334;54.316;10.182;2022-08-30T02:46:10;2.13;;;1.00;;
37477;SDS011;23334;54.316;10.182;2022-08-30T02:48:36;1.90;;;1.20;;
37477;SDS011;23334;54.316;10.182;2022-08-30T02:51:06;2.80;;;1.10;;
37477;SDS011;23334;54.316;10.182;2022-08-30T02:53:36;1.40;;;1.30;;
37477;SDS011;23334;54.316;10.182;2022-08-30T02:56:03;5.37;;;1.40;;
37477;SDS011;23334;54.316;10.182;2022-08-30T02:58:29;2.60;;;1.20;;
37477;SDS011;23334;54.316;10.182;2022-08-30T03:00:55;2.10;;;1.00;;
37477;SDS011;23334;54.316;10.182;2022-08-30T03:03:21;1.73;;;1.20;;
37477;SDS011;23334;54.316;10.182;2022-08-30T03:05:47;1.20;;;1.10;;
37477;SDS011;23334;54.316;10.182;2022-08-30T03:08:12;1.40;;;1.20;;
37477;SDS011;23334;54.316;10.182;2022-08-30T03:10:38;1.13;;;1.00;;
37477;SDS011;23334;54.316;10.182;2022-08-30T03:13:04;1.13;;;0.90;;
37477;SDS011;23334;54.316;10.182;2022-08-30T03:15:31;2.07;;;1.20;;
37477;SDS011;23334;54.316;10.182;2022-08-30T03:17:57;1.10;;;1.00;;
37477;SDS011;23334;54.316;10.182;2022-08-30T03:20:23;1.30;;;1.20;;
37477;SDS011;23334;54.316;10.182;2022-08-30T03:22:48;3.13;;;0.93;;
37477;SDS011;23334;54.316;10.182;2022-08-30T03:25:14;1.07;;;0.93;;
37477;SDS011;23334;54.316;10.182;2022-08-30T03:27:40;3.37;;;1.03;;
37477;SDS011;23334;54.316;10.182;2022-08-30T03:30:06;2.80;;;2.03;;
37477;SDS011;23334;54.316;10.182;2022-08-30T03:32:34;1.30;;;1.03;;
37477;SDS011;23334;54.316;10.182;2022-08-30T03:35:00;2.80;;;1.50;;
37477;SDS011;23334;54.316;10.182;2022-08-30T03:37:25;2.30;;;1.10;;
37477;SDS011;23334;54.316;10.182;2022-08-30T03:39:51;1.10;;;0.97;;
37477;SDS011;23334;54.316;10.182;2022-08-30T03:42:18;1.13;;;1.03;;
37477;SDS011;23334;54.316;10.182;2022-08-30T03:44:44;1.77;;;1.20;;
37477;SDS011;23334;54.316;10.182;2022-08-30T03:47:10;3.37;;;1.43;;
37477;SDS011;23334;54.316;10.182;2022-08-30T03:49:36;1.47;;;1.33;;
37477;SDS011;23334;54.316;10.182;2022-08-30T03:52:03;1.73;;;1.10;;
37477;SDS011;23334;54.316;10.182;2022-08-30T03:54:29;2.17;;;1.57;;
37477;SDS011;23334;54.316;10.182;2022-08-30T03:56:56;1.43;;;1.33;;
37477;SDS011;23334;54.316;10.182;2022-08-30T03:59:22;2.83;;;1.20;;
37477;SDS011;23334;54.316;10.182;2022-08-30T04:01:48;3.13;;;1.27;;
37477;SDS011;23334;54.316;10.182;2022-08-30T04:04:14;2.50;;;1.70;;
37477;SDS011;23334;54.316;10.182;2022-08-30T04:06:39;1.47;;;1.37;;
37477;SDS011;23334;54.316;10.182;2022-08-30T04:09:05;1.40;;;1.30;;
37477;SDS011;23334;54.316;10.182;2022-08-30T04:11:31;4.63;;;1.67;;
37477;SDS011;23334;54.316;10.182;2022-08-30T04:13:57;1.40;;;1.30;;
37477;SDS011;23334;54.316;10.182;2022-08-30T04:16:23;1.50;;;1.40;;
37477;SDS011;23334;54.316;10.182;2022-08-30T04:18:49;2.97;;;1.70;;
37477;SDS011;23334;54.316;10.182;2022-08-30T04:21:16;1.60;;;1.50;;
37477;SDS011;23334;54.316;10.182;2022-08-30T04:23:42;2.40;;;1.50;;
37477;SDS011;23334;54.316;10.182;2022-08-30T04:26:07;8.67;;;1.50;;
37477;SDS011;23334;54.316;10.182;2022-08-30T04:28:34;2.30;;;1.30;;
37477;SDS011;23334;54.316;10.182;2022-08-30T04:31:11;1.77;;;1.60;;
37477;SDS011;23334;54.316;10.182;2022-08-30T04:33:38;7.00;;;1.60;;
37477;SDS011;23334;54.316;10.182;2022-08-30T04:36:05;2.20;;;1.67;;
37477;SDS011;23334;54.316;10.182;2022-08-30T04:38:32;2.07;;;1.67;;
37477;SDS011;23334;54.316;10.182;2022-08-30T04:40:59;2.00;;;1.53;;
37477;SDS011;23334;54.316;10.182;2022-08-30T04:43:25;1.70;;;1.60;;
37477;SDS011;23334;54.316;10.182;2022-08-30T04:45:51;2.00;;;1.40;;
37477;SDS011;23334;54.316;10.182;2022-08-30T04:48:17;2.53;;;1.20;;
37477;SDS011;23334;54.316;10.182;2022-08-30T04:50:43;1.70;;;1.50;;
37477;SDS011;23334;54.316;10.182;2022-08-30T04:53:08;4.70;;;1.70;;
37477;SDS011;23334;54.316;10.182;2022-08-30T04:55:35;4.23;;;2.37;;
37477;SDS011;23334;54.316;10.182;2022-08-30T04:58:01;2.30;;;2.10;;
37477;SDS011;23334;54.316;10.182;2022-08-30T05:00:26;5.10;;;2.00;;
37477;SDS011;23334;54.316;10.182;2022-08-30T05:02:52;3.00;;;1.90;;
37477;SDS011;23334;54.316;10.182;2022-08-30T05:05:18;1.60;;;1.50;;
37477;SDS011;23334;54.316;10.182;2022-08-30T05:08:02;3.13;;;1.60;;
37477;SDS011;23334;54.316;10.182;2022-08-30T05:10:28;2.00;;;1.80;;
37477;SDS011;23334;54.316;10.182;2022-08-30T05:12:54;5.43;;;1.93;;
37477;SDS011;23334;54.316;10.182;2022-08-30T05:15:19;5.43;;;2.00;;
37477;SDS011;23334;54.316;10.182;2022-08-30T05:17:46;2.73;;;2.07;;
37477;SDS011;23334;54.316;10.182;2022-08-30T05:20:12;6.50;;;2.23;;
37477;SDS011;23334;54.316;10.182;2022-08-30T05:22:38;1.60;;;1.50;;
37477;SDS011;23334;54.316;10.182;2022-08-30T05:25:06;4.37;;;1.43;;
37477;SDS011;23334;54.316;10.182;2022-08-30T05:27:32;2.60;;;1.87;;
37477;SDS011;23334;54.316;10.182;2022-08-30T05:29:58;4.07;;;1.77;;
37477;SDS011;23334;54.316;10.182;2022-08-30T05:32:24;2.40;;;1.10;;
37477;SDS011;23334;54.316;10.182;2022-08-30T05:34:49;1.40;;;1.30;;
37477;SDS011;23334;54.316;10.182;2022-08-30T05:37:15;4.53;;;1.70;;
37477;SDS011;23334;54.316;10.182;2022-08-30T05:39:40;2.57;;;1.53;;
37477;SDS011;23334;54.316;10.182;2022-08-30T05:42:06;1.50;;;1.20;;
37477;SDS011;23334;54.316;10.182;2022-08-30T05:44:32;4.30;;;1.60;;
37477;SDS011;23334;54.316;10.182;2022-08-30T05:46:58;1.67;;;1.50;;
37477;SDS011;23334;54.316;10.182;2022-08-30T05:49:23;5.93;;;1.40;;
37477;SDS011;23334;54.316;10.182;2022-08-30T05:51:49;5.83;;;1.63;;
37477;SDS011;23334;54.316;10.182;2022-08-30T05:54:15;2.00;;;1.57;;
37477;SDS011;23334;54.316;10.182;2022-08-30T05:56:41;3.03;;;1.23;;
37477;SDS011;23334;54.316;10.182;2022-08-30T05:59:09;2.30;;;1.40;;
37477;SDS011;23334;54.316;10.182;2022-08-30T06:01:37;2.07;;;1.40;;
37477;SDS011;23334;54.316;10.182;2022-08-30T06:04:05;3.03;;;1.40;;
37477;SDS011;23334;54.316;10.182;2022-08-30T06:06:35;3.37;;;1.50;;
37477;SDS011;23334;54.316;10.182;2022-08-30T06:09:03;9.87;;;1.53;;
37477;SDS011;23334;54.316;10.182;2022-08-30T06:11:29;2.07;;;1.40;;
37477;SDS011;23334;54.316;10.182;2022-08-30T06:13:55;4.80;;;2.13;;
37477;SDS011;23334;54.316;10.182;2022-08-30T06:16:22;3.70;;;1.67;;
37477;SDS011;23334;54.316;10.182;2022-08-30T06:18:49;4.07;;;1.43;;
37477;SDS011;23334;54.316;10.182;2022-08-30T06:21:15;5.53;;;1.33;;
37477;SDS011;23334;54.316;10.182;2022-08-30T06:23:42;3.23;;;1.37;;
37477;SDS011;23334;54.316;10.182;2022-08-30T06:26:08;5.27;;;1.40;;
37477;SDS011;23334;54.316;10.182;2022-08-30T06:28:34;7.50;;;1.67;;
37477;SDS011;23334;54.316;10.182;2022-08-30T06:30:59;6.70;;;1.27;;
37477;SDS011;23334;54.316;10.182;2022-08-30T06:33:25;4.53;;;1.37;;
37477;SDS011;23334;54.316;10.182;2022-08-30T06:35:50;2.10;;;1.23;;
37477;SDS011;23334;54.316;10.182;2022-08-30T06:38:16;4.77;;;1.30;;
37477;SDS011;23334;54.316;10.182;2022-08-30T06:40:41;3.70;;;1.10;;
37477;SDS011;23334;54.316;10.182;2022-08-30T06:43:07;2.60;;;0.93;;
37477;SDS011;23334;54.316;10.182;2022-08-30T06:45:33;2.70;;;1.40;;
37477;SDS011;23334;54.316;10.182;2022-08-30T06:47:59;3.57;;;1.00;;
37477;SDS011;23334;54.316;10.182;2022-08-30T06:50:25;4.33;;;1.20;;
37477;SDS011;23334;54.316;10.182;2022-08-30T06:52:50;3.00;;;1.00;;
37477;SDS011;23334;54.316;10.182;2022-08-30T06:55:16;9.90;;;1.63;;
37477;SDS011;23334;54.316;10.182;2022-08-30T06:57:42;1.50;;;1.10;;
37477;SDS011;23334;54.316;10.182;2022-08-30T07:00:10;4.53;;;1.30;;
37477;SDS011;23334;54.316;10.182;2022-08-30T07:02:38;0.93;;;0.70;;
37477;SDS011;23334;54.316;10.182;2022-08-30T07:05:03;10.00;;;1.43;;
37477;SDS011;23334;54.316;10.182;2022-08-30T07:07:30;3.20;;;1.10;;
37477;SDS011;23334;54.316;10.182;2022-08-30T07:09:55;1.67;;;0.80;;
37477;SDS011;23334;54.316;10.182;2022-08-30T07:12:21;3.00;;;1.30;;
37477;SDS011;23334;54.316;10.182;2022-08-30T07:14:47;3.23;;;1.10;;
37477;SDS011;23334;54.316;10.182;2022-08-30T07:17:12;1.47;;;1.13;;
37477;SDS011;23334;54.316;10.182;2022-08-30T07:19:57;3.43;;;0.93;;
37477;SDS011;23334;54.316;10.182;2022-08-30T07:22:22;1.70;;;1.10;;
37477;SDS011;23334;54.316;10.182;2022-08-30T07:24:48;9.47;;;1.33;;
37477;SDS011;23334;54.316;10.182;2022-08-30T07:27:14;1.30;;;0.80;;
37477;SDS011;23334;54.316;10.182;2022-08-30T07:29:39;3.83;;;1.00;;
37477;SDS011;23334;54.316;10.182;2022-08-30T07:32:05;1.43;;;0.83;;
37477;SDS011;23334;54.316;10.182;2022-08-30T07:34:30;2.63;;;1.27;;
37477;SDS011;23334;54.316;10.182;2022-08-30T07:36:56;2.50;;;0.90;;
37477;SDS011;23334;54.316;10.182;2022-08-30T07:39:22;2.77;;;0.90;;
37477;SDS011;23334;54.316;10.182;2022-08-30T07:41:47;4.97;;;1.53;;
37477;SDS011;23334;54.316;10.182;2022-08-30T07:44:14;1.27;;;1.17;;
37477;SDS011;23334;54.316;10.182;2022-08-30T07:46:40;4.50;;;0.73;;
37477;SDS011;23334;54.316;10.182;2022-08-30T07:49:06;0.97;;;0.73;;
37477;SDS011;23334;54.316;10.182;2022-08-30T07:51:33;1.10;;;1.00;;
37477;SDS011;23334;54.316;10.182;2022-08-30T07:53:59;1.30;;;0.90;;
37477;SDS011;23334;54.316;10.182;2022-08-30T07:56:24;2.03;;;1.27;;
37477;SDS011;23334;54.316;10.182;2022-08-30T07:58:50;1.93;;;1.10;;
37477;SDS011;23334;54.316;10.182;2022-08-30T08:01:16;2.33;;;0.70;;
37477;SDS011;23334;54.316;10.182;2022-08-30T08:03:42;1.80;;;1.00;;
37477;SDS011;23334;54.316;10.182;2022-08-30T08:06:10;1.40;;;0.80;;
37477;SDS011;23334;54.316;10.182;2022-08-30T08:08:37;3.90;;;1.37;;
37477;SDS011;23334;54.316;10.182;2022-08-30T08:11:05;1.80;;;0.90;;
37477;SDS011;23334;54.316;10.182;2022-08-30T08:13:37;2.87;;;1.27;;
37477;SDS011;23334;54.316;10.182;2022-08-30T08:16:02;1.30;;;0.93;;
37477;SDS011;23334;54.316;10.182;2022-08-30T08:18:28;1.43;;;1.10;;
37477;SDS011;23334;54.316;10.182;2022-08-30T08:20:53;0.90;;;0.80;;
37477;SDS011;23334;54.316;10.182;2022-08-30T08:23:19;3.70;;;1.33;;
37477;SDS011;23334;54.316;10.182;2022-08-30T08:25:45;2.80;;;1.10;;
37477;SDS011;23334;54.316;10.182;2022-08-30T08:28:11;1.03;;;0.60;;
37477;SDS011;23334;54.316;10.182;2022-08-30T08:30:36;2.33;;;0.73;;
37477;SDS011;23334;54.316;10.182;2022-08-30T08:33:03;1.27;;;0.87;;
37477;SDS011;23334;54.316;10.182;2022-08-30T08:35:30;5.90;;;1.00;;
37477;SDS011;23334;54.316;10.182;2022-08-30T08:37:56;1.30;;;1.00;;
37477;SDS011;23334;54.316;10.182;2022-08-30T08:40:21;2.83;;;1.00;;
37477;SDS011;23334;54.316;10.182;2022-08-30T08:45:48;2.57;;;0.87;;
37477;SDS011;23334;54.316;10.182;2022-08-30T08:51:03;1.27;;;0.87;;
37477;SDS011;23334;54.316;10.182;2022-08-30T08:53:52;2.27;;;0.70;;
37477;SDS011;23334;54.316;10.182;2022-08-30T08:56:23;3.93;;;0.80;;
37477;SDS011;23334;54.316;10.182;2022-08-30T08:58:52;1.80;;;0.80;;
37477;SDS011;23334;54.316;10.182;2022-08-30T09:01:24;6.93;;;1.60;;
37477;SDS011;23334;54.316;10.182;2022-08-30T09:03:52;1.03;;;0.67;;
37477;SDS011;23334;54.316;10.182;2022-08-30T09:06:22;0.90;;;0.73;;
37477;SDS011;23334;54.316;10.182;2022-08-30T09:09:12;2.90;;;0.90;;
37477;SDS011;23334;54.316;10.182;2022-08-30T09:11:40;2.07;;;0.97;;
37477;SDS011;23334;54.316;10.182;2022-08-30T09:14:12;8.20;;;1.73;;
37477;SDS011;23334;54.316;10.182;2022-08-30T09:19:35;5.43;;;1.60;;
37477;SDS011;23334;54.316;10.182;2022-08-30T09:22:04;2.47;;;1.40;;
37477;SDS011;23334;54.316;10.182;2022-08-30T09:24:36;1.93;;;0.93;;
37477;SDS011;23334;54.316;10.182;2022-08-30T09:27:12;6.00;;;1.43;;
37477;SDS011;23334;54.316;10.182;2022-08-30T09:30:00;5.40;;;0.90;;
37477;SDS011;23334;54.316;10.182;2022-08-30T09:32:40;3.80;;;1.17;;
37477;SDS011;23334;54.316;10.182;2022-08-30T09:35:09;14.37;;;1.90;;
37477;SDS011;23334;54.316;10.182;2022-08-30T09:37:44;3.90;;;0.83;;
37477;SDS011;23334;54.316;10.182;2022-08-30T09:40:15;14.43;;;2.00;;
37477;SDS011;23334;54.316;10.182;2022-08-30T09:43:03;3.80;;;0.80;;
37477;SDS011;23334;54.316;10.182;2022-08-30T09:45:33;3.87;;;0.90;;
37477;SDS011;23334;54.316;10.182;2022-08-30T09:48:00;5.57;;;1.00;;
37477;SDS011;23334;54.316;10.182;2022-08-30T09:50:46;2.60;;;0.73;;
37477;SDS011;23334;54.316;10.182;2022-08-30T09:53:20;1.63;;;0.60;;
37477;SDS011;23334;54.316;10.182;2022-08-30T09:55:59;1.10;;;0.70;;
37477;SDS011;23334;54.316;10.182;2022-08-30T10:01:50;2.70;;;0.70;;
37477;SDS011;23334;54.316;10.182;2022-08-30T10:04:23;3.03;;;0.90;;
37477;SDS011;23334;54.316;10.182;2022-08-30T10:09:46;1.37;;;0.73;;
37477;SDS011;23334;54.316;10.182;2022-08-30T10:12:51;1.40;;;0.60;;
37477;SDS011;23334;54.316;10.182;2022-08-30T10:15:33;1.80;;;0.47;;
37477;SDS011;23334;54.316;10.182;2022-08-30T10:18:25;10.17;;;1.20;;
37477;SDS011;23334;54.316;10.182;2022-08-30T10:21:01;4.87;;;1.00;;
37477;SDS011;23334;54.316;10.182;2022-08-30T10:23:57;3.20;;;0.80;;
37477;SDS011;23334;54.316;10.182;2022-08-30T10:26:31;3.20;;;0.87;;
37477;SDS011;23334;54.316;10.182;2022-08-30T10:29:07;5.03;;;0.97;;
37477;SDS011;23334;54.316;10.182;2022-08-30T10:31:41;2.93;;;0.80;;
37477;SDS011;23334;54.316;10.182;2022-08-30T10:34:14;4.53;;;1.00;;
37477;SDS011;23334;54.316;10.182;2022-08-30T10:36:53;4.40;;;0.80;;
37477;SDS011;23334;54.316;10.182;2022-08-30T10:39:27;5.90;;;1.00;;
37477;SDS011;23334;54.316;10.182;2022-08-30T10:42:00;1.67;;;0.63;;
37477;SDS011;23334;54.316;10.182;2022-08-30T10:45:08;1.43;;;0.80;;
37477;SDS011;23334;54.316;10.182;2022-08-30T10:47:39;3.17;;;0.90;;
37477;SDS011;23334;54.316;10.182;2022-08-30T10:50:22;1.60;;;0.70;;
37477;SDS011;23334;54.316;10.182;2022-08-30T10:55:36;1.20;;;0.67;;
37477;SDS011;23334;54.316;10.182;2022-08-30T10:58:09;1.37;;;0.70;;
37477;SDS011;23334;54.316;10.182;2022-08-30T11:00:53;6.20;;;1.40;;
37477;SDS011;23334;54.316;10.182;2022-08-30T11:03:54;1.87;;;0.70;;
37477;SDS011;23334;54.316;10.182;2022-08-30T11:10:02;1.10;;;0.67;;
37477;SDS011;23334;54.316;10.182;2022-08-30T11:12:55;1.97;;;0.70;;
37477;SDS011;23334;54.316;10.182;2022-08-30T11:15:27;1.50;;;0.60;;
37477;SDS011;23334;54.316;10.182;2022-08-30T11:18:10;0.90;;;0.60;;
37477;SDS011;23334;54.316;10.182;2022-08-30T11:20:45;1.10;;;0.50;;
37477;SDS011;23334;54.316;10.182;2022-08-30T11:23:30;5.77;;;0.60;;
37477;SDS011;23334;54.316;10.182;2022-08-30T11:26:05;0.70;;;0.40;;
37477;SDS011;23334;54.316;10.182;2022-08-30T11:31:11;1.40;;;0.40;;
37477;SDS011;23334;54.316;10.182;2022-08-30T11:34:02;1.47;;;0.80;;
37477;SDS011;23334;54.316;10.182;2022-08-30T11:41:31;2.37;;;0.57;;
37477;SDS011;23334;54.316;10.182;2022-08-30T11:46:46;0.90;;;0.50;;
37477;SDS011;23334;54.316;10.182;2022-08-30T11:52:20;1.97;;;0.80;;
37477;SDS011;23334;54.316;10.182;2022-08-30T11:55:01;1.37;;;0.40;;
37477;SDS011;23334;54.316;10.182;2022-08-30T11:57:49;0.80;;;0.50;;
37477;SDS011;23334;54.316;10.182;2022-08-30T12:00:41;0.70;;;0.40;;
37477;SDS011;23334;54.316;10.182;2022-08-30T12:08:52;1.50;;;0.57;;
37477;SDS011;23334;54.316;10.182;2022-08-30T12:18:49;0.90;;;0.47;;
37477;SDS011;23334;54.316;10.182;2022-08-30T12:24:02;2.93;;;0.40;;
37477;SDS011;23334;54.316;10.182;2022-08-30T12:26:40;1.90;;;0.43;;
37477;SDS011;23334;54.316;10.182;2022-08-30T12:29:09;0.73;;;0.43;;
37477;SDS011;23334;54.316;10.182;2022-08-30T12:31:44;1.20;;;0.50;;
37477;SDS011;23334;54.316;10.182;2022-08-30T12:34:22;1.20;;;0.53;;
37477;SDS011;23334;54.316;10.182;2022-08-30T12:36:51;1.90;;;0.30;;
37477;SDS011;23334;54.316;10.182;2022-08-30T12:39:21;0.80;;;0.40;;
37477;SDS011;23334;54.316;10.182;2022-08-30T12:44:48;1.53;;;0.77;;
37477;SDS011;23334;54.316;10.182;2022-08-30T12:47:20;0.70;;;0.40;;
37477;SDS011;23334;54.316;10.182;2022-08-30T12:49:56;2.30;;;0.30;;
37477;SDS011;23334;54.316;10.182;2022-08-30T12:52:27;2.70;;;0.40;;
37477;SDS011;23334;54.316;10.182;2022-08-30T12:58:07;0.77;;;0.50;;
37477;SDS011;23334;54.316;10.182;2022-08-30T13:00:38;0.80;;;0.50;;
37477;SDS011;23334;54.316;10.182;2022-08-30T13:05:57;0.90;;;0.60;;
37477;SDS011;23334;54.316;10.182;2022-08-30T13:08:31;2.30;;;0.60;;
37477;SDS011;23334;54.316;10.182;2022-08-30T13:11:09;0.80;;;0.60;;
37477;SDS011;23334;54.316;10.182;2022-08-30T13:13:50;0.93;;;0.50;;
37477;SDS011;23334;54.316;10.182;2022-08-30T13:18:43;0.90;;;0.70;;
37477;SDS011;23334;54.316;10.182;2022-08-30T13:21:20;7.40;;;0.60;;
37477;SDS011;23334;54.316;10.182;2022-08-30T13:23:58;1.77;;;0.50;;
37477;SDS011;23334;54.316;10.182;2022-08-30T13:26:26;1.00;;;0.40;;
37477;SDS011;23334;54.316;10.182;2022-08-30T13:31:22;0.70;;;0.40;;
37477;SDS011;23334;54.316;10.182;2022-08-30T13:33:51;1.00;;;0.60;;
37477;SDS011;23334;54.316;10.182;2022-08-30T13:36:17;0.93;;;0.53;;
37477;SDS011;23334;54.316;10.182;2022-08-30T13:38:50;1.40;;;0.47;;
37477;SDS011;23334;54.316;10.182;2022-08-30T13:41:16;0.80;;;0.50;;
37477;SDS011;23334;54.316;10.182;2022-08-30T13:43:42;0.80;;;0.50;;
37477;SDS011;23334;54.316;10.182;2022-08-30T13:46:08;0.70;;;0.40;;
37477;SDS011;23334;54.316;10.182;2022-08-30T13:48:36;0.70;;;0.40;;
37477;SDS011;23334;54.316;10.182;2022-08-30T13:51:01;0.90;;;0.40;;
37477;SDS011;23334;54.316;10.182;2022-08-30T13:53:27;2.20;;;0.63;;
37477;SDS011;23334;54.316;10.182;2022-08-30T13:55:52;0.93;;;0.40;;
37477;SDS011;23334;54.316;10.182;2022-08-30T13:58:18;0.67;;;0.30;;
37477;SDS011;23334;54.316;10.182;2022-08-30T14:00:44;0.70;;;0.40;;
37477;SDS011;23334;54.316;10.182;2022-08-30T14:03:10;0.70;;;0.40;;
37477;SDS011;23334;54.316;10.182;2022-08-30T14:05:37;0.97;;;0.40;;
37477;SDS011;23334;54.316;10.182;2022-08-30T14:08:03;0.80;;;0.50;;
37477;SDS011;23334;54.316;10.182;2022-08-30T14:10:31;1.00;;;0.50;;
37477;SDS011;23334;54.316;10.182;2022-08-30T14:12:57;0.80;;;0.60;;
37477;SDS011;23334;54.316;10.182;2022-08-30T14:15:23;0.70;;;0.30;;
37477;SDS011;23334;54.316;10.182;2022-08-30T14:17:49;0.87;;;0.47;;
37477;SDS011;23334;54.316;10.182;2022-08-30T14:20:14;0.70;;;0.40;;
37477;SDS011;23334;54.316;10.182;2022-08-30T14:22:40;2.70;;;0.50;;
37477;SDS011;23334;54.316;10.182;2022-08-30T14:25:06;0.97;;;0.43;;
37477;SDS011;23334;54.316;10.182;2022-08-30T14:27:31;0.80;;;0.50;;
37477;SDS011;23334;54.316;10.182;2022-08-30T14:29:57;0.80;;;0.60;;
37477;SDS011;23334;54.316;10.182;2022-08-30T14:32:22;0.73;;;0.40;;
37477;SDS011;23334;54.316;10.182;2022-08-30T14:34:48;0.60;;;0.30;;
37477;SDS011;23334;54.316;10.182;2022-08-30T14:37:14;0.70;;;0.50;;
37477;SDS011;23334;54.316;10.182;2022-08-30T14:39:40;0.70;;;0.43;;
37477;SDS011;23334;54.316;10.182;2022-08-30T14:42:06;1.83;;;0.30;;
37477;SDS011;23334;54.316;10.182;2022-08-30T14:44:32;1.40;;;0.40;;
37477;SDS011;23334;54.316;10.182;2022-08-30T14:46:58;0.70;;;0.30;;
37477;SDS011;23334;54.316;10.182;2022-08-30T14:49:24;0.70;;;0.33;;
37477;SDS011;23334;54.316;10.182;2022-08-30T14:51:50;1.03;;;0.40;;
37477;SDS011;23334;54.316;10.182;2022-08-30T14:54:18;2.23;;;0.40;;
37477;SDS011;23334;54.316;10.182;2022-08-30T14:56:45;0.70;;;0.33;;
37477;SDS011;23334;54.316;10.182;2022-08-30T14:59:12;0.70;;;0.40;;
37477;SDS011;23334;54.316;10.182;2022-08-30T15:01:38;0.70;;;0.40;;
37477;SDS011;23334;54.316;10.182;2022-08-30T15:04:05;0.80;;;0.40;;
37477;SDS011;23334;54.316;10.182;2022-08-30T15:06:33;0.70;;;0.50;;
37477;SDS011;23334;54.316;10.182;2022-08-30T15:08:59;0.80;;;0.40;;
37477;SDS011;23334;54.316;10.182;2022-08-30T15:11:25;1.80;;;1.70;;
37477;SDS011;23334;54.316;10.182;2022-08-30T15:13:55;1.00;;;0.40;;
37477;SDS011;23334;54.316;10.182;2022-08-30T15:16:22;1.67;;;0.40;;
37477;SDS011;23334;54.316;10.182;2022-08-30T15:18:50;0.97;;;0.40;;
37477;SDS011;23334;54.316;10.182;2022-08-30T15:21:31;2.00;;;0.40;;
37477;SDS011;23334;54.316;10.182;2022-08-30T15:23:59;0.60;;;0.30;;
37477;SDS011;23334;54.316;10.182;2022-08-30T15:26:26;0.63;;;0.30;;
37477;SDS011;23334;54.316;10.182;2022-08-30T15:28:52;0.80;;;0.40;;
37477;SDS011;23334;54.316;10.182;2022-08-30T15:31:19;0.90;;;0.30;;
37477;SDS011;23334;54.316;10.182;2022-08-30T15:33:47;0.70;;;0.40;;
37477;SDS011;23334;54.316;10.182;2022-08-30T15:36:12;0.80;;;0.50;;
37477;SDS011;23334;54.316;10.182;2022-08-30T15:38:38;0.70;;;0.30;;
37477;SDS011;23334;54.316;10.182;2022-08-30T15:41:06;2.47;;;0.40;;
37477;SDS011;23334;54.316;10.182;2022-08-30T15:43:34;0.60;;;0.30;;
37477;SDS011;23334;54.316;10.182;2022-08-30T15:46:17;0.70;;;0.40;;
37477;SDS011;23334;54.316;10.182;2022-08-30T15:48:47;0.60;;;0.30;;